sensor_id;sensor_type;location;lat;lon;timestamp;temperature;humidity
23120;DHT22;11729;50.836;4.330;2024-01-30T00:01:55;12.00;99.90
23120;DHT22;11729;50.836;4.330;2024-01-30T00:04:21;12.00;99.90
23120;DHT22;11729;50.836;4.330;2024-01-30T00:06:47;12.10;99.90
23120;DHT22;11729;50.836;4.330;2024-01-30T00:09:13;12.00;99.90
23120;DHT22;11729;50.836;4.330;2024-01-30T00:11:39;12.00;99.90
23120;DHT22;11729;50.836;4.330;2024-01-30T00:14:05;12.00;99.90
23120;DHT22;11729;50.836;4.330;2024-01-30T00:16:30;12.00;99.90
23120;DHT22;11729;50.836;4.330;2024-01-30T00:18:56;12.10;99.90
23120;DHT22;11729;50.836;4.330;2024-01-30T00:21:22;12.10;99.90
23120;DHT22;11729;50.836;4.330;2024-01-30T00:23:48;12.00;99.90
23120;DHT22;11729;50.836;4.330;2024-01-30T00:26:14;12.00;99.90
23120;DHT22;11729;50.836;4.330;2024-01-30T00:28:42;12.10;99.90
23120;DHT22;11729;50.836;4.330;2024-01-30T00:31:08;12.10;99.90
23120;DHT22;11729;50.836;4.330;2024-01-30T00:33:40;12.10;99.90
23120;DHT22;11729;50.836;4.330;2024-01-30T00:36:07;12.10;99.90
23120;DHT22;11729;50.836;4.330;2024-01-30T00:38:33;12.20;99.90
23120;DHT22;11729;50.836;4.330;2024-01-30T00:40:59;12.20;99.90
23120;DHT22;11729;50.836;4.330;2024-01-30T00:43:25;12.20;99.90
23120;DHT22;11729;50.836;4.330;2024-01-30T00:45:53;12.30;99.90
23120;DHT22;11729;50.836;4.330;2024-01-30T00:48:19;12.30;99.90
23120;DHT22;11729;50.836;4.330;2024-01-30T00:50:45;12.40;99.90
23120;DHT22;11729;50.836;4.330;2024-01-30T00:53:10;12.50;99.90
23120;DHT22;11729;50.836;4.330;2024-01-30T00:55:36;12.40;99.90
23120;DHT22;11729;50.836;4.330;2024-01-30T00:58:02;12.40;99.90
23120;DHT22;11729;50.836;4.330;2024-01-30T01:00:28;12.50;99.90
23120;DHT22;11729;50.836;4.330;2024-01-30T01:02:58;12.60;99.90
23120;DHT22;11729;50.836;4.330;2024-01-30T01:05:23;12.50;99.90
23120;DHT22;11729;50.836;4.330;2024-01-30T01:07:49;12.50;99.90
23120;DHT22;11729;50.836;4.330;2024-01-30T01:10:16;12.60;99.90
23120;DHT22;11729;50.836;4.330;2024-01-30T01:12:44;12.50;99.90
23120;DHT22;11729;50.836;4.330;2024-01-30T01:15:10;12.50;99.90
23120;DHT22;11729;50.836;4.330;2024-01-30T01:17:39;12.60;99.90
23120;DHT22;11729;50.836;4.330;2024-01-30T01:20:07;12.50;99.90
23120;DHT22;11729;50.836;4.330;2024-01-30T01:22:33;12.60;99.90
23120;DHT22;11729;50.836;4.330;2024-01-30T01:25:00;12.60;99.90
23120;DHT22;11729;50.836;4.330;2024-01-30T01:27:25;12.60;99.90
23120;DHT22;11729;50.836;4.330;2024-01-30T01:29:52;12.60;99.90
23120;DHT22;11729;50.836;4.330;2024-01-30T01:32:18;12.60;99.90
23120;DHT22;11729;50.836;4.330;2024-01-30T01:34:46;12.70;99.90
23120;DHT22;11729;50.836;4.330;2024-01-30T01:37:11;12.70;99.90
23120;DHT22;11729;50.836;4.330;2024-01-30T01:39:37;12.60;99.90
23120;DHT22;11729;50.836;4.330;2024-01-30T01:42:03;12.60;99.90
23120;DHT22;11729;50.836;4.330;2024-01-30T01:44:29;12.70;99.90
23120;DHT22;11729;50.836;4.330;2024-01-30T01:46:55;12.70;99.90
23120;DHT22;11729;50.836;4.330;2024-01-30T01:49:24;12.80;99.90
23120;DHT22;11729;50.836;4.330;2024-01-30T01:51:51;12.80;99.90
23120;DHT22;11729;50.836;4.330;2024-01-30T01:54:17;12.80;99.90
23120;DHT22;11729;50.836;4.330;2024-01-30T01:56:44;12.80;99.90
23120;DHT22;11729;50.836;4.330;2024-01-30T01:59:10;12.70;99.90
23120;DHT22;11729;50.836;4.330;2024-01-30T02:01:37;12.70;99.90
23120;DHT22;11729;50.836;4.330;2024-01-30T02:04:02;12.80;99.90
23120;DHT22;11729;50.836;4.330;2024-01-30T02:06:28;12.80;99.90
23120;DHT22;11729;50.836;4.330;2024-01-30T02:08:54;12.80;99.90
23120;DHT22;11729;50.836;4.330;2024-01-30T02:11:22;12.80;99.90
23120;DHT22;11729;50.836;4.330;2024-01-30T02:13:48;12.80;99.90
23120;DHT22;11729;50.836;4.330;2024-01-30T02:16:14;12.70;99.90
23120;DHT22;11729;50.836;4.330;2024-01-30T02:18:40;12.60;99.90
23120;DHT22;11729;50.836;4.330;2024-01-30T02:21:12;12.70;99.90
23120;DHT22;11729;50.836;4.330;2024-01-30T02:23:39;12.70;99.90
23120;DHT22;11729;50.836;4.330;2024-01-30T02:26:06;12.70;99.90
23120;DHT22;11729;50.836;4.330;2024-01-30T02:28:32;12.70;99.90
23120;DHT22;11729;50.836;4.330;2024-01-30T02:30:59;12.70;99.90
23120;DHT22;11729;50.836;4.330;2024-01-30T02:33:26;12.80;99.90
23120;DHT22;11729;50.836;4.330;2024-01-30T02:35:53;12.90;99.90
23120;DHT22;11729;50.836;4.330;2024-01-30T02:38:19;12.90;99.90
23120;DHT22;11729;50.836;4.330;2024-01-30T02:40:46;12.90;99.90
23120;DHT22;11729;50.836;4.330;2024-01-30T02:43:12;13.00;99.90
23120;DHT22;11729;50.836;4.330;2024-01-30T02:45:38;12.90;99.90
23120;DHT22;11729;50.836;4.330;2024-01-30T02:48:05;12.90;99.90
23120;DHT22;11729;50.836;4.330;2024-01-30T02:50:31;12.80;99.90
23120;DHT22;11729;50.836;4.330;2024-01-30T02:52:57;12.80;99.90
23120;DHT22;11729;50.836;4.330;2024-01-30T02:55:22;12.90;99.90
23120;DHT22;11729;50.836;4.330;2024-01-30T02:57:48;12.90;99.90
23120;DHT22;11729;50.836;4.330;2024-01-30T03:00:14;12.80;99.90
23120;DHT22;11729;50.836;4.330;2024-01-30T03:02:41;12.70;99.90
23120;DHT22;11729;50.836;4.330;2024-01-30T03:05:08;12.70;99.90
23120;DHT22;11729;50.836;4.330;2024-01-30T03:07:34;12.70;99.90
23120;DHT22;11729;50.836;4.330;2024-01-30T03:10:00;12.70;99.90
23120;DHT22;11729;50.836;4.330;2024-01-30T03:12:26;12.70;99.90
23120;DHT22;11729;50.836;4.330;2024-01-30T03:14:51;12.70;99.90
23120;DHT22;11729;50.836;4.330;2024-01-30T03:17:17;12.80;99.90
23120;DHT22;11729;50.836;4.330;2024-01-30T03:19:45;12.70;99.90
23120;DHT22;11729;50.836;4.330;2024-01-30T03:22:12;12.80;99.90
23120;DHT22;11729;50.836;4.330;2024-01-30T03:24:38;12.80;99.90
23120;DHT22;11729;50.836;4.330;2024-01-30T03:27:03;12.80;99.90
23120;DHT22;11729;50.836;4.330;2024-01-30T03:29:29;12.80;99.90
23120;DHT22;11729;50.836;4.330;2024-01-30T03:31:54;12.80;99.90
23120;DHT22;11729;50.836;4.330;2024-01-30T03:34:20;12.80;99.90
23120;DHT22;11729;50.836;4.330;2024-01-30T03:36:46;12.80;99.90
23120;DHT22;11729;50.836;4.330;2024-01-30T03:39:12;12.80;99.90
23120;DHT22;11729;50.836;4.330;2024-01-30T03:41:38;12.80;99.90
23120;DHT22;11729;50.836;4.330;2024-01-30T03:44:03;12.80;99.90
23120;DHT22;11729;50.836;4.330;2024-01-30T03:46:29;12.70;99.90
23120;DHT22;11729;50.836;4.330;2024-01-30T03:48:54;12.80;99.90
23120;DHT22;11729;50.836;4.330;2024-01-30T03:51:20;12.80;99.90
23120;DHT22;11729;50.836;4.330;2024-01-30T03:53:46;12.90;99.90
23120;DHT22;11729;50.836;4.330;2024-01-30T03:56:12;12.90;99.90
23120;DHT22;11729;50.836;4.330;2024-01-30T03:58:39;12.90;99.90
23120;DHT22;11729;50.836;4.330;2024-01-30T04:01:04;12.90;99.90
23120;DHT22;11729;50.836;4.330;2024-01-30T04:03:31;12.90;99.90
23120;DHT22;11729;50.836;4.330;2024-01-30T04:05:56;12.80;99.90
23120;DHT22;11729;50.836;4.330;2024-01-30T04:08:22;12.90;99.90
23120;DHT22;11729;50.836;4.330;2024-01-30T04:10:48;12.90;99.90
23120;DHT22;11729;50.836;4.330;2024-01-30T04:13:13;12.90;99.90
23120;DHT22;11729;50.836;4.330;2024-01-30T04:15:39;12.90;99.90
23120;DHT22;11729;50.836;4.330;2024-01-30T04:18:05;12.90;99.90
23120;DHT22;11729;50.836;4.330;2024-01-30T04:20:31;12.90;99.90
23120;DHT22;11729;50.836;4.330;2024-01-30T04:22:56;12.90;99.90
23120;DHT22;11729;50.836;4.330;2024-01-30T04:25:23;12.90;99.90
23120;DHT22;11729;50.836;4.330;2024-01-30T04:27:48;12.80;99.90
23120;DHT22;11729;50.836;4.330;2024-01-30T04:30:14;12.70;99.90
23120;DHT22;11729;50.836;4.330;2024-01-30T04:32:41;12.80;99.90
23120;DHT22;11729;50.836;4.330;2024-01-30T04:35:07;12.70;99.90
23120;DHT22;11729;50.836;4.330;2024-01-30T04:37:32;12.60;99.90
23120;DHT22;11729;50.836;4.330;2024-01-30T04:39:58;12.60;99.90
23120;DHT22;11729;50.836;4.330;2024-01-30T04:42:23;12.60;99.90
23120;DHT22;11729;50.836;4.330;2024-01-30T04:44:50;12.70;99.90
23120;DHT22;11729;50.836;4.330;2024-01-30T04:47:16;12.60;99.90
23120;DHT22;11729;50.836;4.330;2024-01-30T04:49:42;12.60;99.90
23120;DHT22;11729;50.836;4.330;2024-01-30T04:52:08;12.40;99.90
23120;DHT22;11729;50.836;4.330;2024-01-30T04:54:34;12.40;99.90
23120;DHT22;11729;50.836;4.330;2024-01-30T04:57:04;12.40;99.90
23120;DHT22;11729;50.836;4.330;2024-01-30T04:59:31;12.60;99.90
23120;DHT22;11729;50.836;4.330;2024-01-30T05:01:56;12.60;99.90
23120;DHT22;11729;50.836;4.330;2024-01-30T05:04:22;12.60;99.90
23120;DHT22;11729;50.836;4.330;2024-01-30T05:06:48;12.60;99.90
23120;DHT22;11729;50.836;4.330;2024-01-30T05:09:14;12.60;99.90
23120;DHT22;11729;50.836;4.330;2024-01-30T05:11:40;12.60;99.90
23120;DHT22;11729;50.836;4.330;2024-01-30T05:14:07;12.60;99.90
23120;DHT22;11729;50.836;4.330;2024-01-30T05:16:34;12.70;99.90
23120;DHT22;11729;50.836;4.330;2024-01-30T05:19:00;12.70;99.90
23120;DHT22;11729;50.836;4.330;2024-01-30T05:21:26;12.60;99.90
23120;DHT22;11729;50.836;4.330;2024-01-30T05:23:51;12.70;99.90
23120;DHT22;11729;50.836;4.330;2024-01-30T05:26:17;12.70;99.90
23120;DHT22;11729;50.836;4.330;2024-01-30T05:28:43;12.70;99.90
23120;DHT22;11729;50.836;4.330;2024-01-30T05:31:12;12.60;99.90
23120;DHT22;11729;50.836;4.330;2024-01-30T05:33:38;12.70;99.90
23120;DHT22;11729;50.836;4.330;2024-01-30T05:36:04;12.70;99.90
23120;DHT22;11729;50.836;4.330;2024-01-30T05:38:29;12.60;99.90
23120;DHT22;11729;50.836;4.330;2024-01-30T05:40:55;12.60;99.90
23120;DHT22;11729;50.836;4.330;2024-01-30T05:43:23;12.60;99.90
23120;DHT22;11729;50.836;4.330;2024-01-30T05:45:49;12.60;99.90
23120;DHT22;11729;50.836;4.330;2024-01-30T05:48:14;12.60;99.90
23120;DHT22;11729;50.836;4.330;2024-01-30T05:50:40;12.60;99.90
23120;DHT22;11729;50.836;4.330;2024-01-30T05:53:05;12.60;99.90
23120;DHT22;11729;50.836;4.330;2024-01-30T05:55:31;12.60;99.90
23120;DHT22;11729;50.836;4.330;2024-01-30T05:57:56;12.60;99.90
23120;DHT22;11729;50.836;4.330;2024-01-30T06:00:22;12.50;99.90
23120;DHT22;11729;50.836;4.330;2024-01-30T06:02:48;12.50;99.90
23120;DHT22;11729;50.836;4.330;2024-01-30T06:05:14;12.50;99.90
23120;DHT22;11729;50.836;4.330;2024-01-30T06:07:39;12.50;99.90
23120;DHT22;11729;50.836;4.330;2024-01-30T06:10:06;12.50;99.90
23120;DHT22;11729;50.836;4.330;2024-01-30T06:12:33;12.50;99.90
23120;DHT22;11729;50.836;4.330;2024-01-30T06:14:58;12.40;99.90
23120;DHT22;11729;50.836;4.330;2024-01-30T06:17:25;12.40;99.90
23120;DHT22;11729;50.836;4.330;2024-01-30T06:19:50;12.50;99.90
23120;DHT22;11729;50.836;4.330;2024-01-30T06:22:16;12.40;99.90
23120;DHT22;11729;50.836;4.330;2024-01-30T06:24:43;12.40;99.90
23120;DHT22;11729;50.836;4.330;2024-01-30T06:27:10;12.50;99.90
23120;DHT22;11729;50.836;4.330;2024-01-30T06:29:36;12.30;99.90
23120;DHT22;11729;50.836;4.330;2024-01-30T06:32:03;12.40;99.90
23120;DHT22;11729;50.836;4.330;2024-01-30T06:34:29;12.40;99.90
23120;DHT22;11729;50.836;4.330;2024-01-30T06:36:54;12.50;99.90
23120;DHT22;11729;50.836;4.330;2024-01-30T06:39:20;12.40;99.90
23120;DHT22;11729;50.836;4.330;2024-01-30T06:41:46;12.50;99.90
23120;DHT22;11729;50.836;4.330;2024-01-30T06:44:12;12.40;99.90
23120;DHT22;11729;50.836;4.330;2024-01-30T06:46:38;12.40;99.90
23120;DHT22;11729;50.836;4.330;2024-01-30T06:49:04;12.40;99.90
23120;DHT22;11729;50.836;4.330;2024-01-30T06:51:29;12.30;99.90
23120;DHT22;11729;50.836;4.330;2024-01-30T06:53:55;12.20;99.90
23120;DHT22;11729;50.836;4.330;2024-01-30T06:56:20;12.20;99.90
23120;DHT22;11729;50.836;4.330;2024-01-30T06:58:49;12.10;99.90
23120;DHT22;11729;50.836;4.330;2024-01-30T07:01:15;12.10;99.90
23120;DHT22;11729;50.836;4.330;2024-01-30T07:03:42;12.10;99.90
23120;DHT22;11729;50.836;4.330;2024-01-30T07:06:09;12.20;99.90
23120;DHT22;11729;50.836;4.330;2024-01-30T07:08:36;12.20;99.90
23120;DHT22;11729;50.836;4.330;2024-01-30T07:11:04;12.30;99.90
23120;DHT22;11729;50.836;4.330;2024-01-30T07:13:30;12.30;99.90
23120;DHT22;11729;50.836;4.330;2024-01-30T07:15:55;12.30;99.90
23120;DHT22;11729;50.836;4.330;2024-01-30T07:18:21;12.20;99.90
23120;DHT22;11729;50.836;4.330;2024-01-30T07:20:47;12.20;99.90
23120;DHT22;11729;50.836;4.330;2024-01-30T07:23:13;12.30;99.90
23120;DHT22;11729;50.836;4.330;2024-01-30T07:25:41;12.30;99.90
23120;DHT22;11729;50.836;4.330;2024-01-30T07:28:07;12.40;99.90
23120;DHT22;11729;50.836;4.330;2024-01-30T07:30:34;12.40;99.90
23120;DHT22;11729;50.836;4.330;2024-01-30T07:33:01;12.40;99.90
23120;DHT22;11729;50.836;4.330;2024-01-30T07:35:26;12.40;99.90
23120;DHT22;11729;50.836;4.330;2024-01-30T07:37:52;12.40;99.90
23120;DHT22;11729;50.836;4.330;2024-01-30T07:40:18;12.50;99.90
23120;DHT22;11729;50.836;4.330;2024-01-30T07:42:43;12.60;99.90
23120;DHT22;11729;50.836;4.330;2024-01-30T07:45:09;12.60;99.90
23120;DHT22;11729;50.836;4.330;2024-01-30T07:47:35;12.60;99.90
23120;DHT22;11729;50.836;4.330;2024-01-30T07:50:00;12.60;99.90
23120;DHT22;11729;50.836;4.330;2024-01-30T07:52:26;12.60;99.90
23120;DHT22;11729;50.836;4.330;2024-01-30T07:54:52;12.50;99.90
23120;DHT22;11729;50.836;4.330;2024-01-30T07:57:18;12.50;99.90
23120;DHT22;11729;50.836;4.330;2024-01-30T07:59:44;12.50;99.90
23120;DHT22;11729;50.836;4.330;2024-01-30T08:02:13;12.70;99.90
23120;DHT22;11729;50.836;4.330;2024-01-30T08:04:39;12.60;99.90
23120;DHT22;11729;50.836;4.330;2024-01-30T08:07:05;12.70;99.90
23120;DHT22;11729;50.836;4.330;2024-01-30T08:09:30;12.70;99.90
23120;DHT22;11729;50.836;4.330;2024-01-30T08:11:56;12.60;99.90
23120;DHT22;11729;50.836;4.330;2024-01-30T08:14:21;12.50;99.90
23120;DHT22;11729;50.836;4.330;2024-01-30T08:16:47;12.50;99.90
23120;DHT22;11729;50.836;4.330;2024-01-30T08:19:14;12.50;99.90
23120;DHT22;11729;50.836;4.330;2024-01-30T08:21:41;12.50;99.90
23120;DHT22;11729;50.836;4.330;2024-01-30T08:24:07;12.50;99.90
23120;DHT22;11729;50.836;4.330;2024-01-30T08:26:35;12.50;99.90
23120;DHT22;11729;50.836;4.330;2024-01-30T08:29:04;12.50;99.90
23120;DHT22;11729;50.836;4.330;2024-01-30T08:31:30;12.50;99.90
23120;DHT22;11729;50.836;4.330;2024-01-30T08:33:57;12.50;99.90
23120;DHT22;11729;50.836;4.330;2024-01-30T08:36:22;12.50;99.90
23120;DHT22;11729;50.836;4.330;2024-01-30T08:38:48;12.50;99.90
23120;DHT22;11729;50.836;4.330;2024-01-30T08:41:15;12.60;99.90
23120;DHT22;11729;50.836;4.330;2024-01-30T08:43:41;12.70;99.90
23120;DHT22;11729;50.836;4.330;2024-01-30T08:46:06;12.70;99.90
23120;DHT22;11729;50.836;4.330;2024-01-30T08:48:32;12.70;99.90
23120;DHT22;11729;50.836;4.330;2024-01-30T08:50:58;12.70;99.90
23120;DHT22;11729;50.836;4.330;2024-01-30T08:53:23;12.70;99.90
23120;DHT22;11729;50.836;4.330;2024-01-30T08:55:51;12.80;99.90
23120;DHT22;11729;50.836;4.330;2024-01-30T08:58:16;12.80;99.90
23120;DHT22;11729;50.836;4.330;2024-01-30T09:00:44;12.80;99.90
23120;DHT22;11729;50.836;4.330;2024-01-30T09:03:10;12.90;99.90
23120;DHT22;11729;50.836;4.330;2024-01-30T09:05:35;12.90;99.90
23120;DHT22;11729;50.836;4.330;2024-01-30T09:08:01;12.90;99.90
23120;DHT22;11729;50.836;4.330;2024-01-30T09:10:27;13.00;99.90
23120;DHT22;11729;50.836;4.330;2024-01-30T09:12:52;13.10;99.90
23120;DHT22;11729;50.836;4.330;2024-01-30T09:15:18;13.10;99.90
23120;DHT22;11729;50.836;4.330;2024-01-30T09:17:44;13.10;99.90
23120;DHT22;11729;50.836;4.330;2024-01-30T09:20:11;13.00;99.90
23120;DHT22;11729;50.836;4.330;2024-01-30T09:22:37;13.10;99.90
23120;DHT22;11729;50.836;4.330;2024-01-30T09:25:02;13.10;99.90
23120;DHT22;11729;50.836;4.330;2024-01-30T09:27:28;13.00;99.90
23120;DHT22;11729;50.836;4.330;2024-01-30T09:29:54;12.90;99.90
23120;DHT22;11729;50.836;4.330;2024-01-30T09:32:19;13.10;99.90
23120;DHT22;11729;50.836;4.330;2024-01-30T09:34:46;13.00;99.90
23120;DHT22;11729;50.836;4.330;2024-01-30T09:37:12;12.90;99.90
23120;DHT22;11729;50.836;4.330;2024-01-30T09:39:41;12.90;99.90
23120;DHT22;11729;50.836;4.330;2024-01-30T09:42:20;12.90;99.90
23120;DHT22;11729;50.836;4.330;2024-01-30T09:44:51;13.00;99.90
23120;DHT22;11729;50.836;4.330;2024-01-30T09:47:17;13.10;99.90
23120;DHT22;11729;50.836;4.330;2024-01-30T09:49:43;12.90;99.90
23120;DHT22;11729;50.836;4.330;2024-01-30T09:52:09;12.80;99.90
23120;DHT22;11729;50.836;4.330;2024-01-30T09:54:38;12.80;99.90
23120;DHT22;11729;50.836;4.330;2024-01-30T09:57:04;12.80;99.90
23120;DHT22;11729;50.836;4.330;2024-01-30T09:59:31;12.60;99.90
23120;DHT22;11729;50.836;4.330;2024-01-30T10:01:57;12.70;99.90
23120;DHT22;11729;50.836;4.330;2024-01-30T10:04:24;12.70;99.90
23120;DHT22;11729;50.836;4.330;2024-01-30T10:06:50;12.70;99.90
23120;DHT22;11729;50.836;4.330;2024-01-30T10:09:17;12.70;99.90
23120;DHT22;11729;50.836;4.330;2024-01-30T10:11:43;12.60;99.90
23120;DHT22;11729;50.836;4.330;2024-01-30T10:14:09;12.60;99.90
23120;DHT22;11729;50.836;4.330;2024-01-30T10:16:35;12.60;99.90
23120;DHT22;11729;50.836;4.330;2024-01-30T10:19:00;12.80;99.90
23120;DHT22;11729;50.836;4.330;2024-01-30T10:21:26;12.80;99.90
23120;DHT22;11729;50.836;4.330;2024-01-30T10:23:53;12.80;99.90
23120;DHT22;11729;50.836;4.330;2024-01-30T10:26:19;12.70;99.90
23120;DHT22;11729;50.836;4.330;2024-01-30T10:28:48;12.70;99.90
23120;DHT22;11729;50.836;4.330;2024-01-30T10:31:17;12.70;99.90
23120;DHT22;11729;50.836;4.330;2024-01-30T10:33:44;12.70;99.90
23120;DHT22;11729;50.836;4.330;2024-01-30T10:36:13;12.70;99.90
23120;DHT22;11729;50.836;4.330;2024-01-30T10:38:42;12.70;99.90
23120;DHT22;11729;50.836;4.330;2024-01-30T10:41:11;12.80;99.90
23120;DHT22;11729;50.836;4.330;2024-01-30T10:43:50;12.80;99.90
23120;DHT22;11729;50.836;4.330;2024-01-30T10:46:20;12.90;99.90
23120;DHT22;11729;50.836;4.330;2024-01-30T10:48:57;12.80;99.90
23120;DHT22;11729;50.836;4.330;2024-01-30T10:51:29;12.90;99.90
23120;DHT22;11729;50.836;4.330;2024-01-30T10:53:56;12.80;99.90
23120;DHT22;11729;50.836;4.330;2024-01-30T10:56:22;12.90;99.90
23120;DHT22;11729;50.836;4.330;2024-01-30T10:58:50;12.90;99.90
23120;DHT22;11729;50.836;4.330;2024-01-30T11:01:21;12.70;99.90
23120;DHT22;11729;50.836;4.330;2024-01-30T11:03:53;12.50;99.90
23120;DHT22;11729;50.836;4.330;2024-01-30T11:06:25;12.40;99.90
23120;DHT22;11729;50.836;4.330;2024-01-30T11:09:03;12.30;99.90
23120;DHT22;11729;50.836;4.330;2024-01-30T11:11:29;12.30;99.90
23120;DHT22;11729;50.836;4.330;2024-01-30T11:13:55;12.60;99.90
23120;DHT22;11729;50.836;4.330;2024-01-30T11:16:21;12.60;99.90
23120;DHT22;11729;50.836;4.330;2024-01-30T11:18:50;12.30;99.90
23120;DHT22;11729;50.836;4.330;2024-01-30T11:21:17;12.10;99.90
23120;DHT22;11729;50.836;4.330;2024-01-30T11:23:43;12.10;99.90
23120;DHT22;11729;50.836;4.330;2024-01-30T11:26:12;12.20;99.90
23120;DHT22;11729;50.836;4.330;2024-01-30T11:28:38;12.40;99.90
23120;DHT22;11729;50.836;4.330;2024-01-30T11:31:07;12.30;99.90
23120;DHT22;11729;50.836;4.330;2024-01-30T11:33:33;12.20;99.90
23120;DHT22;11729;50.836;4.330;2024-01-30T11:36:01;12.30;99.90
23120;DHT22;11729;50.836;4.330;2024-01-30T11:38:28;12.30;99.90
23120;DHT22;11729;50.836;4.330;2024-01-30T11:40:58;12.30;99.90
23120;DHT22;11729;50.836;4.330;2024-01-30T11:43:24;12.40;99.90
23120;DHT22;11729;50.836;4.330;2024-01-30T11:45:50;12.50;99.90
23120;DHT22;11729;50.836;4.330;2024-01-30T11:48:16;12.40;99.90
23120;DHT22;11729;50.836;4.330;2024-01-30T11:50:44;12.40;99.90
23120;DHT22;11729;50.836;4.330;2024-01-30T11:53:13;12.50;99.90
23120;DHT22;11729;50.836;4.330;2024-01-30T11:55:39;12.90;99.90
23120;DHT22;11729;50.836;4.330;2024-01-30T11:58:05;13.40;99.90
23120;DHT22;11729;50.836;4.330;2024-01-30T12:00:31;13.60;99.90
23120;DHT22;11729;50.836;4.330;2024-01-30T12:02:58;13.50;99.90
23120;DHT22;11729;50.836;4.330;2024-01-30T12:05:26;13.50;99.90
23120;DHT22;11729;50.836;4.330;2024-01-30T12:07:52;13.30;99.90
23120;DHT22;11729;50.836;4.330;2024-01-30T12:10:18;13.40;99.90
23120;DHT22;11729;50.836;4.330;2024-01-30T12:12:48;13.80;99.90
23120;DHT22;11729;50.836;4.330;2024-01-30T12:15:15;13.80;99.90
23120;DHT22;11729;50.836;4.330;2024-01-30T12:17:41;14.30;99.90
23120;DHT22;11729;50.836;4.330;2024-01-30T12:22:44;15.40;99.90
23120;DHT22;11729;50.836;4.330;2024-01-30T12:25:14;15.10;99.90
23120;DHT22;11729;50.836;4.330;2024-01-30T12:27:43;14.90;99.90
23120;DHT22;11729;50.836;4.330;2024-01-30T12:30:10;14.70;99.90
23120;DHT22;11729;50.836;4.330;2024-01-30T12:32:43;14.40;99.90
23120;DHT22;11729;50.836;4.330;2024-01-30T12:35:13;14.20;99.90
23120;DHT22;11729;50.836;4.330;2024-01-30T12:37:40;14.00;99.90
23120;DHT22;11729;50.836;4.330;2024-01-30T12:40:07;13.90;99.90
23120;DHT22;11729;50.836;4.330;2024-01-30T12:42:33;13.90;99.90
23120;DHT22;11729;50.836;4.330;2024-01-30T12:44:59;13.90;99.90
23120;DHT22;11729;50.836;4.330;2024-01-30T12:47:25;13.80;99.90
23120;DHT22;11729;50.836;4.330;2024-01-30T12:49:51;14.00;99.90
23120;DHT22;11729;50.836;4.330;2024-01-30T12:52:21;14.30;99.90
23120;DHT22;11729;50.836;4.330;2024-01-30T12:54:47;14.60;99.90
23120;DHT22;11729;50.836;4.330;2024-01-30T12:57:13;14.70;99.90
23120;DHT22;11729;50.836;4.330;2024-01-30T12:59:39;14.80;99.90
23120;DHT22;11729;50.836;4.330;2024-01-30T13:02:05;15.50;99.90
23120;DHT22;11729;50.836;4.330;2024-01-30T13:04:34;16.10;99.90
23120;DHT22;11729;50.836;4.330;2024-01-30T13:07:00;16.90;99.90
23120;DHT22;11729;50.836;4.330;2024-01-30T13:09:27;17.90;99.90
23120;DHT22;11729;50.836;4.330;2024-01-30T13:11:53;18.70;99.90
23120;DHT22;11729;50.836;4.330;2024-01-30T13:14:19;18.60;99.90
23120;DHT22;11729;50.836;4.330;2024-01-30T13:16:45;18.10;99.90
23120;DHT22;11729;50.836;4.330;2024-01-30T13:19:11;17.70;99.90
23120;DHT22;11729;50.836;4.330;2024-01-30T13:21:36;16.80;99.90
23120;DHT22;11729;50.836;4.330;2024-01-30T13:24:03;16.10;99.90
23120;DHT22;11729;50.836;4.330;2024-01-30T13:26:32;15.50;99.90
23120;DHT22;11729;50.836;4.330;2024-01-30T13:28:58;15.20;99.90
23120;DHT22;11729;50.836;4.330;2024-01-30T13:31:24;14.60;99.90
23120;DHT22;11729;50.836;4.330;2024-01-30T13:33:50;14.10;99.90
23120;DHT22;11729;50.836;4.330;2024-01-30T13:36:16;13.80;99.90
23120;DHT22;11729;50.836;4.330;2024-01-30T13:38:42;13.70;99.90
23120;DHT22;11729;50.836;4.330;2024-01-30T13:41:08;13.50;99.90
23120;DHT22;11729;50.836;4.330;2024-01-30T13:43:34;13.50;99.90
23120;DHT22;11729;50.836;4.330;2024-01-30T13:46:00;13.10;99.90
23120;DHT22;11729;50.836;4.330;2024-01-30T13:48:25;13.20;99.90
23120;DHT22;11729;50.836;4.330;2024-01-30T13:50:51;12.90;99.90
23120;DHT22;11729;50.836;4.330;2024-01-30T13:53:18;12.70;99.90
23120;DHT22;11729;50.836;4.330;2024-01-30T13:55:44;12.60;99.90
23120;DHT22;11729;50.836;4.330;2024-01-30T13:58:09;12.70;99.90
23120;DHT22;11729;50.836;4.330;2024-01-30T14:00:35;12.60;99.90
23120;DHT22;11729;50.836;4.330;2024-01-30T14:03:01;12.50;99.90
23120;DHT22;11729;50.836;4.330;2024-01-30T14:05:27;12.60;99.90
23120;DHT22;11729;50.836;4.330;2024-01-30T14:07:56;12.60;99.90
23120;DHT22;11729;50.836;4.330;2024-01-30T14:10:22;12.60;99.90
23120;DHT22;11729;50.836;4.330;2024-01-30T14:12:48;12.60;99.90
23120;DHT22;11729;50.836;4.330;2024-01-30T14:15:14;12.60;99.90
23120;DHT22;11729;50.836;4.330;2024-01-30T14:17:47;12.60;99.90
23120;DHT22;11729;50.836;4.330;2024-01-30T14:20:14;12.50;99.90
23120;DHT22;11729;50.836;4.330;2024-01-30T14:22:42;12.20;99.90
23120;DHT22;11729;50.836;4.330;2024-01-30T14:25:09;12.10;99.90
23120;DHT22;11729;50.836;4.330;2024-01-30T14:27:35;12.00;99.90
23120;DHT22;11729;50.836;4.330;2024-01-30T14:30:01;11.90;99.90
23120;DHT22;11729;50.836;4.330;2024-01-30T14:32:26;11.90;99.90
23120;DHT22;11729;50.836;4.330;2024-01-30T14:34:52;11.90;99.90
23120;DHT22;11729;50.836;4.330;2024-01-30T14:37:19;12.10;99.90
23120;DHT22;11729;50.836;4.330;2024-01-30T14:39:45;12.20;99.90
23120;DHT22;11729;50.836;4.330;2024-01-30T14:42:10;12.10;99.90
23120;DHT22;11729;50.836;4.330;2024-01-30T14:44:36;12.20;99.90
23120;DHT22;11729;50.836;4.330;2024-01-30T14:47:02;12.30;99.90
23120;DHT22;11729;50.836;4.330;2024-01-30T14:49:28;12.30;99.90
23120;DHT22;11729;50.836;4.330;2024-01-30T14:51:53;12.30;99.90
23120;DHT22;11729;50.836;4.330;2024-01-30T14:54:19;12.20;99.90
23120;DHT22;11729;50.836;4.330;2024-01-30T14:56:45;12.10;99.90
23120;DHT22;11729;50.836;4.330;2024-01-30T14:59:11;12.10;99.90
23120;DHT22;11729;50.836;4.330;2024-01-30T15:01:39;11.90;99.90
23120;DHT22;11729;50.836;4.330;2024-01-30T15:04:05;11.80;99.90
23120;DHT22;11729;50.836;4.330;2024-01-30T15:06:30;11.90;99.90
23120;DHT22;11729;50.836;4.330;2024-01-30T15:08:56;11.80;99.90
23120;DHT22;11729;50.836;4.330;2024-01-30T15:11:22;11.70;99.90
23120;DHT22;11729;50.836;4.330;2024-01-30T15:13:47;11.50;99.90
23120;DHT22;11729;50.836;4.330;2024-01-30T15:16:13;11.60;99.90
23120;DHT22;11729;50.836;4.330;2024-01-30T15:18:39;11.50;99.90
23120;DHT22;11729;50.836;4.330;2024-01-30T15:21:06;11.60;99.90
23120;DHT22;11729;50.836;4.330;2024-01-30T15:23:34;11.60;99.90
23120;DHT22;11729;50.836;4.330;2024-01-30T15:26:01;11.60;99.90
23120;DHT22;11729;50.836;4.330;2024-01-30T15:28:37;11.60;99.90